Nearby METAR Reports

 

KIOB - Mount Sterling, Kentucky, USA
Distance from station: NNW 14mi, 23km
Updated: Sat, 18-Sep-2021 5:15am EDT
Clear
Clear
 Wind from calm
Wind: Calm
Temperature: 64°F , 18°C
Dew Point: 64°F , 18°C
Humidity: 100%
Barometer: 30.17 inHg , 1021.7 hPa
Clouds: Clear
Visibility: 10 miles , 16 km
2021/09/18 09:15 KIOB 180915Z AUTO 00000KT 10SM CLR 18/18 A3017 RMK AO2
KSYM - Morehead, Kentucky, USA
Distance from station: NE 31mi, 49km
Updated: Sat, 18-Sep-2021 5:15am EDT
Mist, Clear
Mist, Clear
 Wind from SSW
Wind: SSW 3 mph , 6 km/h
Temperature: 66°F , 19°C
Dew Point: 64°F , 18°C
Humidity: 94%
Barometer: 30.16 inHg , 1021.3 hPa
Summary: Mist
Clouds: Clear
Visibility: 2 1/2 miles , 4 km
2021/09/18 09:15 KSYM 180915Z AUTO 20003KT 2 1/2SM BR CLR 19/18 A3016 RMK AO2 VIS 1 3/4V5
 
KJKL - Noctor/Jackson, Kentucky, USA
Distance from station: ESE 36mi, 58km
Updated: Sat, 18-Sep-2021 5:22am EDT
Overcast
Overcast
 Wind from calm
Wind: Calm
Temperature: 70°F , 21°C
Dew Point: 66°F , 19°C
Humidity: 88%
Barometer: 30.17 inHg , 1021.7 hPa
Clouds: Overcast
Visibility: 8 miles , 13 km
Cloud details: Mostly cloudy 100 ft
Mostly cloudy 5500 ft
Overcast 7500 ft
2021/09/18 09:22 KJKL 180922Z AUTO 00000KT 8SM BKN001 BKN055 OVC075 21/19 A3017 RMK AO2 T02060189
KLEX - Lexington, Kentucky, USA
Distance from station: WNW 40mi, 65km
Updated: Sat, 18-Sep-2021 4:54am EDT
Clear
Clear
 Wind from calm
Wind: Calm
Temperature: 64°F , 18°C
Dew Point: 63°F , 17°C
Humidity: 94%
Barometer: 30.15 inHg , 1021 hPa
Clouds: Clear
Visibility: 10 miles , 16 km
2021/09/18 08:54 KLEX 180854Z AUTO 00000KT 10SM CLR 18/17 A3015 RMK AO2 SLP199 T01780172 53001
 
KFGX - Flemingsburg, Kentucky, USA
Distance from station: N 49mi, 79km
Updated: Sat, 18-Sep-2021 5:15am EDT
Partly cloudy
Partly cloudy
 Wind from calm
Wind: Calm
Temperature: 66°F , 19°C
Dew Point: 66°F , 19°C
Humidity: 100%
Barometer: 30.16 inHg , 1021.3 hPa
Clouds: Partly cloudy
Visibility: 7 miles , 11 km
Cloud details: Partly cloudy 4100 ft
Partly cloudy 4800 ft
2021/09/18 09:15 KFGX 180915Z AUTO 00000KT 7SM SCT041 SCT048 19/19 A3016 RMK AO2 T01900190